Gedney, New York
Current Conditions -  °F | °C
As of 11:56 AM on Wednesday 22 Oct 2014 (Local Time) from KHPN Reporting Station
Broken Clouds Broken Clouds  
Wind Chill: 55°   Ceiling: 1800
Heat Index: 55°   Visibility: 10mi
Dew Point: 49°   Wind: 14mph
Humidity: 80%   Direction: 30°NNE
Pressure: 29.93"   Gusts: 22mph
Location:  41.0104°N, 73.7454°W
Report Text: KHPN 221556Z 03012G19KT 10SM BKN018 BKN085 13/09 A2993 RMK AO2 SLP134 T01280094
Loading
Personal Weather Stations






























Interactive Weather Map
Tropical Storm Tracking
New forecast layout! Learn more

10-Day Weather Forecast

Advertisements
Track Severe Weather on mobile